Time;durP1;ratioP1;P1;durP2;ratioP2;P2;SDS_P1;SDS_P2;PMS_P1;PMS_P2;Temp;Humidity;BMP_temperature;BMP_pressure;BME280_temperature;BME280_humidity;BME280_pressure;Samples;Min_cycle;Max_cycle;Signal;HPM_P1;HPM_P2
2023/07/20 00:01:15;;;;;;;3.47;2.27;;;27.10;38.70;;;;;;5057598;28;20669;-50
2023/07/20 00:03:41;;;;;;;3.23;2.20;;;27.10;38.40;;;;;;5076504;28;20230;-49
2023/07/20 00:06:07;;;;;;;3.13;2.87;;;27.10;38.10;;;;;;5068826;28;20191;-48
2023/07/20 00:08:32;;;;;;;2.50;2.27;;;27.00;38.00;;;;;;5065308;28;20253;-49
2023/07/20 00:10:58;;;;;;;3.77;2.10;;;27.00;37.90;;;;;;5067073;28;20197;-49
2023/07/20 00:13:24;;;;;;;6.23;2.40;;;27.00;37.70;;;;;;5065231;28;20245;-48
2023/07/20 00:15:49;;;;;;;2.77;2.20;;;27.10;37.70;;;;;;5056113;28;20203;-49
2023/07/20 00:18:15;;;;;;;2.03;1.93;;;27.00;37.60;;;;;;5059650;28;20191;-48
2023/07/20 00:20:40;;;;;;;2.60;2.40;;;27.00;37.90;;;;;;5073974;28;20277;-48
2023/07/20 00:23:06;;;;;;;6.13;2.40;;;26.90;38.00;;;;;;5066335;28;20224;-48
2023/07/20 00:25:33;;;;;;;4.07;2.50;;;26.90;37.80;;;;;;5060485;28;20203;-47
2023/07/20 00:27:58;;;;;;;2.87;2.40;;;26.80;38.10;;;;;;5054513;28;20192;-49
2023/07/20 00:30:24;;;;;;;3.90;2.50;;;26.90;38.70;;;;;;5052999;28;20499;-48
2023/07/20 00:32:50;;;;;;;2.80;2.60;;;27.00;38.60;;;;;;5052620;28;20257;-48
2023/07/20 00:35:15;;;;;;;2.17;1.97;;;27.10;38.80;;;;;;5051362;28;20254;-48
2023/07/20 00:37:41;;;;;;;3.07;2.40;;;27.20;38.70;;;;;;5058718;28;20657;-49
2023/07/20 00:40:07;;;;;;;2.60;2.40;;;27.20;38.30;;;;;;5064664;28;20183;-48
2023/07/20 00:42:33;;;;;;;2.67;2.47;;;27.20;38.60;;;;;;5072279;28;20255;-48
2023/07/20 00:45:00;;;;;;;2.43;2.23;;;27.10;38.50;;;;;;5071085;28;20934;-48
2023/07/20 00:47:27;;;;;;;5.07;2.37;;;26.90;38.60;;;;;;5072100;28;20434;-49
2023/07/20 00:49:53;;;;;;;3.60;2.60;;;26.80;38.80;;;;;;5082120;28;20446;-48
2023/07/20 00:52:23;;;;;;;5.00;2.30;;;26.80;38.80;;;;;;5073632;28;20445;-48
2023/07/20 00:54:49;;;;;;;8.37;3.07;;;26.80;38.80;;;;;;5069112;28;20468;-51
2023/07/20 00:57:17;;;;;;;3.27;2.50;;;26.80;38.80;;;;;;5070888;28;20438;-50
2023/07/20 00:59:43;;;;;;;3.57;1.73;;;26.70;38.70;;;;;;5072297;28;20987;-49
2023/07/20 01:02:09;;;;;;;3.30;2.20;;;26.70;38.70;;;;;;5074251;28;20491;-48
2023/07/20 01:04:35;;;;;;;2.00;1.90;;;26.50;38.50;;;;;;5066259;28;20422;-50
2023/07/20 01:07:03;;;;;;;3.07;2.10;;;26.40;38.80;;;;;;5073643;28;20252;-49
2023/07/20 01:09:51;;;;;;;2.53;2.10;;;26.40;39.10;;;;;;5065559;28;20491;-48
2023/07/20 01:12:27;;;;;;;3.60;2.60;;;26.40;38.90;;;;;;5068083;28;20988;-49
2023/07/20 01:14:54;;;;;;;2.73;1.80;;;26.30;39.20;;;;;;5079384;28;20811;-51
2023/07/20 01:17:19;;;;;;;5.23;2.23;;;26.30;39.60;;;;;;5075305;28;20496;-48
2023/07/20 01:19:45;;;;;;;2.87;1.80;;;26.30;38.80;;;;;;5068691;28;21073;-48
2023/07/20 01:22:27;;;;;;;2.70;2.03;;;26.30;38.60;;;;;;5078997;28;20243;-48
2023/07/20 01:25:23;;;;;;;2.13;1.93;;;26.40;39.00;;;;;;5063193;28;20199;-48
2023/07/20 01:28:35;;;;;;;2.50;2.20;;;26.30;38.40;;;;;;5074134;28;20453;-51
2023/07/20 01:31:22;;;;;;;3.90;1.87;;;26.20;39.10;;;;;;5064377;28;20461;-48
2023/07/20 01:33:50;;;;;;;6.60;2.20;;;26.10;39.20;;;;;;5061172;28;20451;-50
2023/07/20 01:36:17;;;;;;;4.03;2.30;;;26.10;38.70;;;;;;5071772;28;20526;-50
2023/07/20 01:38:44;;;;;;;2.70;1.93;;;26.00;39.40;;;;;;5060846;28;20485;-48
2023/07/20 01:41:11;;;;;;;3.57;2.20;;;26.10;39.30;;;;;;5054475;28;20497;-48
2023/07/20 01:43:36;;;;;;;2.87;2.67;;;26.10;39.10;;;;;;5051338;28;20543;-49
2023/07/20 01:46:02;;;;;;;1.90;1.80;;;26.10;39.70;;;;;;5076442;28;20437;-48
2023/07/20 01:48:28;;;;;;;2.60;2.20;;;26.20;40.00;;;;;;5063106;28;20192;-53
2023/07/20 01:50:53;;;;;;;4.27;2.10;;;26.40;39.50;;;;;;5058341;28;20198;-53
2023/07/20 01:53:20;;;;;;;3.73;1.87;;;26.40;39.70;;;;;;5057233;28;20200;-51
2023/07/20 01:55:45;;;;;;;2.30;2.10;;;26.60;39.50;;;;;;5062447;28;20192;-52
2023/07/20 01:58:11;;;;;;;3.60;2.33;;;26.60;38.70;;;;;;5069030;28;20439;-53
2023/07/20 02:00:37;;;;;;;2.40;2.00;;;26.70;39.00;;;;;;5055995;28;21034;-51
2023/07/20 02:03:03;;;;;;;2.40;2.17;;;26.80;38.90;;;;;;5062272;28;20224;-53
2023/07/20 02:05:29;;;;;;;2.27;1.83;;;26.70;38.70;;;;;;5054393;28;21401;-53
2023/07/20 02:07:54;;;;;;;2.80;2.50;;;26.80;38.90;;;;;;5055840;28;20230;-52
2023/07/20 02:10:20;;;;;;;3.53;2.50;;;26.70;38.50;;;;;;5061026;28;20192;-53
2023/07/20 02:12:46;;;;;;;7.60;2.47;;;26.60;38.20;;;;;;5061095;28;20224;-53
2023/07/20 02:15:13;;;;;;;2.20;2.00;;;26.40;39.30;;;;;;5061531;28;20203;-53
2023/07/20 02:17:40;;;;;;;6.23;2.13;;;26.30;39.80;;;;;;5065617;28;20196;-53
2023/07/20 02:20:09;;;;;;;2.43;2.20;;;26.10;39.90;;;;;;5056740;28;20443;-53
2023/07/20 02:22:34;;;;;;;2.53;2.03;;;26.10;40.00;;;;;;5068326;28;20828;-52
2023/07/20 02:25:00;;;;;;;2.33;2.03;;;26.20;40.00;;;;;;5071113;28;20456;-53
2023/07/20 02:27:25;;;;;;;2.90;1.80;;;26.10;39.80;;;;;;5064908;28;20184;-53
2023/07/20 02:29:51;;;;;;;4.50;1.90;;;26.20;39.40;;;;;;5066351;28;20667;-54
2023/07/20 02:32:16;;;;;;;3.17;2.27;;;26.10;39.80;;;;;;5071235;28;20215;-52
2023/07/20 02:34:42;;;;;;;4.97;2.40;;;26.10;39.30;;;;;;5068537;28;20183;-52
2023/07/20 02:37:08;;;;;;;2.60;2.40;;;25.90;40.00;;;;;;5068056;28;20201;-52
2023/07/20 02:39:34;;;;;;;2.67;2.47;;;25.90;39.80;;;;;;5075537;28;20195;-53
2023/07/20 02:41:59;;;;;;;5.53;2.60;;;25.90;40.00;;;;;;5081736;28;20487;-54
2023/07/20 02:44:25;;;;;;;4.43;2.27;;;25.80;40.40;;;;;;5082545;28;20244;-51
2023/07/20 02:46:50;;;;;;;2.90;2.70;;;25.70;40.90;;;;;;5061782;28;20204;-52
2023/07/20 02:49:16;;;;;;;3.80;2.60;;;25.70;40.80;;;;;;5066709;28;20230;-53
2023/07/20 02:51:42;;;;;;;2.60;2.40;;;25.80;40.50;;;;;;5060975;28;20183;-52
2023/07/20 02:54:08;;;;;;;2.40;2.20;;;25.70;41.20;;;;;;5074374;28;20556;-50
2023/07/20 02:56:34;;;;;;;5.07;2.60;;;25.80;40.90;;;;;;5065233;28;20196;-51
2023/07/20 02:59:01;;;;;;;2.53;2.33;;;25.80;41.20;;;;;;5085379;28;20453;-53
2023/07/20 03:01:29;;;;;;;3.00;2.70;;;26.00;41.00;;;;;;5073986;28;20447;-51
2023/07/20 03:03:55;;;;;;;2.83;1.97;;;26.20;40.40;;;;;;5082405;28;20901;-50
2023/07/20 03:06:20;;;;;;;3.90;2.50;;;26.30;40.30;;;;;;5082202;28;20488;-50
2023/07/20 03:08:51;;;;;;;2.73;2.37;;;26.40;40.30;;;;;;5082118;28;20441;-49
2023/07/20 03:11:18;;;;;;;4.90;2.60;;;26.50;40.00;;;;;;5073681;28;20223;-49
2023/07/20 03:13:44;;;;;;;3.17;1.97;;;26.50;39.90;;;;;;5078185;28;20843;-49
2023/07/20 03:16:12;;;;;;;2.80;2.23;;;26.60;40.00;;;;;;5073590;28;20438;-50
2023/07/20 03:18:44;;;;;;;2.00;1.80;;;26.60;40.30;;;;;;5071919;28;20495;-49
2023/07/20 03:21:13;;;;;;;2.03;1.80;;;26.60;40.10;;;;;;5069904;28;20990;-50
2023/07/20 03:23:40;;;;;;;3.33;2.40;;;26.70;40.20;;;;;;5078905;28;20881;-49
2023/07/20 03:26:08;;;;;;;2.30;2.10;;;26.60;40.00;;;;;;5075142;28;20437;-49
2023/07/20 03:28:34;;;;;;;2.53;2.10;;;26.70;40.00;;;;;;5070233;28;20446;-52
2023/07/20 03:30:59;;;;;;;7.20;3.83;;;26.50;40.60;;;;;;5067626;28;20443;-50
2023/07/20 03:33:27;;;;;;;2.40;2.20;;;26.60;40.60;;;;;;5054963;28;20499;-52
2023/07/20 03:35:53;;;;;;;2.40;2.20;;;26.50;40.70;;;;;;5071087;28;20188;-52
2023/07/20 03:38:19;;;;;;;4.43;2.50;;;26.50;40.80;;;;;;5066009;28;20446;-50
2023/07/20 03:40:56;;;;;;;2.63;2.00;;;26.30;41.10;;;;;;5053234;28;20930;-49
2023/07/20 03:43:23;;;;;;;2.13;2.03;;;26.30;41.20;;;;;;5052775;28;20886;-53
2023/07/20 03:45:49;;;;;;;2.17;1.97;;;26.30;41.20;;;;;;5055492;28;20446;-50
2023/07/20 03:48:21;;;;;;;2.47;2.27;;;26.30;41.20;;;;;;5065107;28;20442;-50
2023/07/20 03:50:48;;;;;;;5.37;2.37;;;26.20;41.30;;;;;;5057448;28;20450;-53
2023/07/20 03:53:14;;;;;;;3.20;2.30;;;26.20;41.30;;;;;;5058944;28;20480;-52
2023/07/20 03:55:50;;;;;;;2.30;2.10;;;26.10;41.40;;;;;;5054396;28;20447;-51
2023/07/20 03:58:17;;;;;;;3.63;2.40;;;26.10;41.40;;;;;;5056278;28;20445;-54
2023/07/20 04:00:47;;;;;;;4.70;2.27;;;26.30;41.20;;;;;;5052579;28;20447;-53
2023/07/20 04:03:13;;;;;;;2.90;2.40;;;26.40;40.90;;;;;;5058614;28;20548;-50
2023/07/20 04:05:39;;;;;;;3.87;2.50;;;26.60;40.40;;;;;;5072436;28;20876;-53
2023/07/20 04:08:04;;;;;;;2.30;2.10;;;26.60;39.20;;;;;;5066499;28;20483;-51
2023/07/20 04:10:30;;;;;;;4.83;2.40;;;26.50;39.20;;;;;;5057462;28;20188;-49
2023/07/20 04:12:55;;;;;;;5.00;2.70;;;26.20;39.50;;;;;;5060472;28;20585;-51
2023/07/20 04:15:21;;;;;;;2.90;2.60;;;26.00;39.90;;;;;;5057537;28;20257;-49
2023/07/20 04:17:47;;;;;;;4.00;2.63;;;25.80;40.30;;;;;;5056528;28;20302;-54
2023/07/20 04:20:12;;;;;;;10.20;5.20;;;25.60;40.90;;;;;;5054154;28;20212;-54
2023/07/20 04:22:38;;;;;;;6.70;3.93;;;25.40;41.30;;;;;;5075927;28;20591;-50
2023/07/20 04:25:04;;;;;;;6.07;4.97;;;25.20;41.70;;;;;;5079636;28;20191;-50
2023/07/20 04:27:30;;;;;;;6.93;5.70;;;25.00;42.10;;;;;;5060689;28;20199;-51
2023/07/20 04:29:57;;;;;;;6.50;4.90;;;24.90;42.30;;;;;;5057085;28;20783;-53
2023/07/20 04:32:23;;;;;;;5.30;4.33;;;24.80;42.50;;;;;;5058159;28;20200;-49
2023/07/20 04:34:48;;;;;;;8.20;5.43;;;24.80;42.70;;;;;;5056345;28;20789;-50
2023/07/20 04:37:14;;;;;;;5.83;3.97;;;24.70;42.90;;;;;;5050499;28;20188;-54
2023/07/20 04:39:39;;;;;;;5.60;4.83;;;24.60;43.20;;;;;;5056109;28;20204;-53
2023/07/20 04:42:05;;;;;;;4.57;3.87;;;24.50;43.40;;;;;;5067336;28;20226;-49
2023/07/20 04:44:31;;;;;;;5.17;4.00;;;24.50;43.70;;;;;;5071872;28;20561;-51
2023/07/20 04:46:56;;;;;;;4.10;3.50;;;24.40;43.80;;;;;;5072237;28;20192;-52
2023/07/20 04:49:22;;;;;;;4.10;3.63;;;24.40;44.00;;;;;;5069895;28;20192;-53
2023/07/20 04:51:47;;;;;;;8.80;3.63;;;24.40;44.10;;;;;;5063827;28;20195;-53
2023/07/20 04:54:13;;;;;;;3.67;2.80;;;24.40;44.30;;;;;;5063136;28;20219;-52
2023/07/20 04:56:39;;;;;;;3.90;3.03;;;24.30;44.30;;;;;;5071349;28;20274;-53
2023/07/20 04:59:04;;;;;;;4.60;2.83;;;24.30;44.40;;;;;;5071712;28;20279;-54
2023/07/20 05:01:30;;;;;;;4.13;2.60;;;24.30;44.90;;;;;;5072776;28;20218;-53
2023/07/20 05:03:55;;;;;;;4.23;2.57;;;24.30;44.90;;;;;;5068875;28;20319;-53
2023/07/20 05:06:21;;;;;;;3.17;2.97;;;24.20;45.00;;;;;;5072911;28;20207;-54
2023/07/20 05:08:47;;;;;;;5.13;2.47;;;24.10;47.20;;;;;;5074490;28;20223;-53
2023/07/20 05:11:12;;;;;;;2.90;2.17;;;24.30;46.10;;;;;;5066672;28;20197;-53
2023/07/20 05:13:38;;;;;;;6.10;3.03;;;24.50;45.50;;;;;;5076797;28;20255;-52
2023/07/20 05:16:04;;;;;;;3.07;2.73;;;24.70;44.90;;;;;;5065586;28;20197;-53
2023/07/20 05:18:30;;;;;;;5.53;2.67;;;24.90;44.50;;;;;;5082062;28;20200;-52
2023/07/20 05:20:55;;;;;;;5.10;3.27;;;25.00;44.20;;;;;;5071658;28;20597;-53
2023/07/20 05:23:21;;;;;;;5.87;3.03;;;25.10;44.00;;;;;;5078766;28;20236;-53
2023/07/20 05:25:58;;;;;;;3.80;2.67;;;25.20;43.80;;;;;;5086401;28;20228;-52
2023/07/20 05:28:24;;;;;;;3.30;2.97;;;25.20;43.70;;;;;;5071454;28;20445;-53
2023/07/20 05:30:54;;;;;;;4.30;2.80;;;25.00;43.80;;;;;;5068708;28;20512;-53
2023/07/20 05:33:20;;;;;;;4.40;2.60;;;25.10;43.70;;;;;;5063990;28;20438;-53
2023/07/20 05:35:46;;;;;;;4.00;2.83;;;25.10;43.90;;;;;;5072491;28;20437;-50
2023/07/20 05:38:11;;;;;;;2.83;2.40;;;25.20;43.70;;;;;;5073362;28;20926;-53
2023/07/20 05:40:42;;;;;;;3.20;2.33;;;25.30;43.60;;;;;;5076622;28;20309;-52
2023/07/20 05:43:08;;;;;;;4.63;3.80;;;25.40;43.40;;;;;;5086818;28;20584;-51
2023/07/20 05:45:34;;;;;;;4.33;3.10;;;25.40;43.30;;;;;;5088322;28;20432;-52
2023/07/20 05:47:59;;;;;;;3.67;2.53;;;25.60;43.40;;;;;;5082986;28;20200;-52
2023/07/20 05:50:25;;;;;;;3.33;2.67;;;25.60;43.20;;;;;;5077548;28;20198;-53
2023/07/20 05:52:54;;;;;;;5.03;2.70;;;25.60;42.90;;;;;;5081192;28;20195;-53
2023/07/20 05:55:19;;;;;;;3.20;2.87;;;25.60;43.60;;;;;;5083371;28;20197;-53
2023/07/20 05:57:45;;;;;;;3.53;2.60;;;25.50;43.30;;;;;;5075157;28;20927;-53
2023/07/20 06:00:14;;;;;;;7.87;4.87;;;25.50;43.40;;;;;;5081127;28;20550;-52
2023/07/20 06:02:40;;;;;;;6.03;2.70;;;25.60;43.70;;;;;;5072915;28;20465;-49
2023/07/20 06:05:09;;;;;;;4.17;2.30;;;25.90;43.60;;;;;;5077612;28;20414;-51
2023/07/20 06:07:38;;;;;;;4.97;2.47;;;26.10;43.10;;;;;;5074800;28;20904;-50
2023/07/20 06:10:05;;;;;;;4.00;3.27;;;26.20;43.30;;;;;;5073505;28;20548;-52
2023/07/20 06:12:31;;;;;;;2.40;2.20;;;26.20;42.60;;;;;;5077414;28;20984;-53
2023/07/20 06:14:56;;;;;;;3.47;2.30;;;26.10;42.90;;;;;;5073487;28;20444;-51
2023/07/20 06:17:22;;;;;;;4.70;2.70;;;26.20;42.90;;;;;;5095634;28;20578;-51
2023/07/20 06:19:47;;;;;;;3.97;2.60;;;26.30;42.80;;;;;;5077806;28;20832;-53
2023/07/20 06:22:13;;;;;;;3.30;2.47;;;26.40;42.30;;;;;;5072848;28;20326;-49
2023/07/20 06:24:39;;;;;;;3.50;2.40;;;26.40;42.40;;;;;;5087066;28;20200;-49
2023/07/20 06:27:05;;;;;;;3.33;2.70;;;26.50;42.50;;;;;;5081523;28;20217;-50
2023/07/20 06:29:31;;;;;;;4.00;2.03;;;26.50;42.10;;;;;;5072497;28;20271;-50
2023/07/20 06:31:56;;;;;;;4.23;2.90;;;26.60;42.90;;;;;;5072576;28;20548;-49
2023/07/20 06:34:22;;;;;;;5.60;2.97;;;26.70;42.40;;;;;;5069861;28;20230;-48
2023/07/20 06:36:48;;;;;;;5.30;2.67;;;26.70;42.80;;;;;;5074083;28;20627;-53
2023/07/20 06:39:14;;;;;;;2.47;2.27;;;26.70;42.70;;;;;;5073849;28;20203;-50
2023/07/20 06:41:39;;;;;;;2.30;2.10;;;26.70;42.90;;;;;;5076319;28;20192;-49
2023/07/20 06:44:05;;;;;;;3.80;2.77;;;26.90;42.70;;;;;;5072764;28;20476;-51
2023/07/20 06:46:31;;;;;;;3.47;2.27;;;26.90;42.30;;;;;;5070734;28;20267;-53
2023/07/20 06:48:56;;;;;;;2.93;2.63;;;26.90;41.00;;;;;;5082124;28;20199;-50
2023/07/20 06:51:22;;;;;;;2.90;2.57;;;26.90;40.80;;;;;;5079370;28;20202;-53
2023/07/20 06:53:48;;;;;;;3.87;2.80;;;26.70;41.20;;;;;;5082623;28;20195;-52
2023/07/20 06:56:14;;;;;;;3.57;2.40;;;26.80;41.30;;;;;;5083877;28;20207;-49
2023/07/20 06:58:39;;;;;;;4.40;2.60;;;26.80;41.30;;;;;;5068141;28;20649;-53
2023/07/20 07:01:08;;;;;;;3.20;2.13;;;26.90;41.10;;;;;;5083433;28;20192;-50
2023/07/20 07:03:34;;;;;;;4.93;3.13;;;27.00;41.10;;;;;;5085757;28;20651;-50
2023/07/20 07:06:00;;;;;;;3.47;2.73;;;26.90;40.90;;;;;;5089578;28;20445;-50
2023/07/20 07:08:26;;;;;;;6.03;2.83;;;27.00;41.00;;;;;;5078318;28;20206;-53
2023/07/20 07:10:52;;;;;;;4.00;3.50;;;27.00;41.00;;;;;;5092260;28;20418;-50
2023/07/20 07:13:18;;;;;;;2.97;2.67;;;26.90;41.20;;;;;;5073422;28;20393;-50
2023/07/20 07:15:45;;;;;;;3.53;1.90;;;27.00;40.90;;;;;;5067419;28;20517;-50
2023/07/20 07:18:10;;;;;;;4.23;2.63;;;27.10;40.90;;;;;;5070139;28;20774;-50
2023/07/20 07:20:36;;;;;;;3.87;2.27;;;27.10;40.80;;;;;;5084293;28;20430;-50
2023/07/20 07:23:02;;;;;;;3.20;2.60;;;27.20;40.70;;;;;;5075892;28;20219;-50
2023/07/20 07:25:28;;;;;;;2.53;2.30;;;27.30;40.80;;;;;;5092339;28;20187;-50
2023/07/20 07:27:55;;;;;;;6.47;2.50;;;27.40;40.70;;;;;;5075610;28;20198;-47
2023/07/20 07:30:21;;;;;;;4.50;2.40;;;27.50;42.00;;;;;;5070859;28;20445;-49
2023/07/20 07:32:46;;;;;;;3.50;3.00;;;27.40;40.80;;;;;;5073177;28;20438;-48
2023/07/20 07:35:12;;;;;;;4.30;2.20;;;27.40;40.60;;;;;;5077319;28;20222;-49
2023/07/20 07:37:38;;;;;;;6.83;2.70;;;27.30;40.30;;;;;;5075005;28;20192;-48
2023/07/20 07:40:05;;;;;;;2.60;2.40;;;27.30;40.40;;;;;;5090330;28;20433;-48
2023/07/20 07:42:31;;;;;;;6.03;2.57;;;27.40;40.60;;;;;;5076820;28;20216;-49
2023/07/20 07:44:56;;;;;;;7.73;2.70;;;27.50;40.70;;;;;;5088978;28;20471;-49
2023/07/20 07:47:22;;;;;;;3.70;2.70;;;27.50;40.80;;;;;;5073749;28;20200;-48
2023/07/20 07:49:48;;;;;;;3.87;2.43;;;27.70;40.60;;;;;;5072750;28;20871;-48
2023/07/20 07:52:14;;;;;;;3.23;2.67;;;27.60;40.80;;;;;;5069654;28;20207;-48
2023/07/20 07:54:39;;;;;;;3.37;2.50;;;27.80;40.70;;;;;;5088629;28;20246;-48
2023/07/20 07:57:06;;;;;;;4.90;2.30;;;27.90;40.30;;;;;;5080510;28;20445;-48
2023/07/20 07:59:36;;;;;;;4.27;2.50;;;28.00;40.30;;;;;;5091732;28;20615;-47
2023/07/20 08:02:02;;;;;;;5.00;2.43;;;28.00;39.70;;;;;;5072846;28;20445;-49
2023/07/20 08:04:28;;;;;;;2.50;2.03;;;28.00;39.50;;;;;;5082198;28;20964;-49
2023/07/20 08:06:53;;;;;;;5.53;2.40;;;28.00;39.40;;;;;;5084523;28;20445;-48
2023/07/20 08:09:19;;;;;;;4.03;2.37;;;27.90;39.30;;;;;;5078443;28;20278;-47
2023/07/20 08:11:44;;;;;;;3.03;2.67;;;27.90;39.20;;;;;;5093120;28;20536;-50
2023/07/20 08:17:04;;;;;;;2.70;1.93;;;28.10;38.50;;;;;;5043456;22;20257;-48
2023/07/20 08:19:30;;;;;;;2.30;2.10;;;28.10;38.70;;;;;;5026639;28;20447;-51
2023/07/20 08:21:56;;;;;;;4.30;2.53;;;28.30;38.10;;;;;;5029817;28;20279;-52
2023/07/20 08:24:21;;;;;;;2.40;2.20;;;28.10;38.00;;;;;;5031139;28;20213;-52
2023/07/20 08:26:47;;;;;;;2.60;2.07;;;27.80;37.70;;;;;;5031303;28;20266;-46
2023/07/20 08:29:12;;;;;;;3.83;2.73;;;27.70;38.30;;;;;;5030433;28;20636;-48
2023/07/20 08:31:38;;;;;;;4.07;2.70;;;27.80;38.60;;;;;;5028499;28;20594;-49
2023/07/20 08:34:03;;;;;;;2.97;2.17;;;28.00;38.20;;;;;;5031802;28;20193;-51
2023/07/20 08:36:29;;;;;;;4.27;2.40;;;28.20;37.40;;;;;;5032431;28;20197;-50
2023/07/20 08:38:55;;;;;;;3.47;2.17;;;28.00;37.10;;;;;;5027848;28;20185;-46
2023/07/20 08:41:20;;;;;;;3.17;2.90;;;28.20;37.10;;;;;;5035069;28;20185;-48
2023/07/20 08:43:47;;;;;;;2.53;2.33;;;28.20;37.80;;;;;;5029638;28;20268;-49
2023/07/20 08:46:14;;;;;;;2.97;2.10;;;28.00;38.00;;;;;;5029823;28;20537;-47
2023/07/20 08:48:41;;;;;;;4.47;2.23;;;28.10;37.70;;;;;;5026924;28;20440;-49
2023/07/20 08:51:07;;;;;;;2.30;2.10;;;28.00;38.00;;;;;;5030074;28;20460;-46
2023/07/20 08:53:34;;;;;;;3.27;2.97;;;28.10;38.00;;;;;;5028268;28;20440;-50
2023/07/20 08:56:01;;;;;;;5.70;2.60;;;28.20;38.10;;;;;;5030917;28;20570;-46
2023/07/20 08:58:28;;;;;;;6.27;2.57;;;27.90;38.10;;;;;;5029875;28;20455;-47
2023/07/20 09:00:54;;;;;;;3.93;2.47;;;27.90;38.60;;;;;;5030993;28;20958;-46
2023/07/20 09:03:20;;;;;;;4.93;2.37;;;28.00;38.00;;;;;;5032003;28;20497;-51
2023/07/20 09:05:46;;;;;;;3.13;2.20;;;28.10;37.90;;;;;;5029402;28;20440;-51
2023/07/20 09:08:11;;;;;;;2.90;2.47;;;28.30;37.20;;;;;;5032221;28;20202;-46
2023/07/20 09:10:37;;;;;;;2.40;2.20;;;28.20;36.90;;;;;;5031287;28;20201;-52
2023/07/20 09:13:02;;;;;;;4.67;1.80;;;28.20;36.10;;;;;;5029515;28;20185;-47
2023/07/20 09:15:30;;;;;;;3.47;2.30;;;28.30;35.40;;;;;;5033690;28;20228;-47
2023/07/20 09:17:55;;;;;;;3.90;2.43;;;28.50;35.00;;;;;;5031083;28;20193;-48
2023/07/20 09:20:21;;;;;;;2.80;2.20;;;28.50;34.90;;;;;;5031622;28;20806;-48
2023/07/20 09:22:47;;;;;;;2.37;2.17;;;28.30;35.80;;;;;;5029788;28;20275;-50
2023/07/20 09:25:19;;;;;;;2.13;1.90;;;28.70;36.00;;;;;;5033519;28;20197;-46
2023/07/20 09:27:47;;;;;;;7.27;2.43;;;29.00;34.70;;;;;;5032549;28;20467;-47
2023/07/20 09:30:15;;;;;;;9.17;2.40;;;29.00;33.90;;;;;;5030567;28;20570;-52
2023/07/20 09:32:48;;;;;;;2.57;2.37;;;29.10;34.00;;;;;;5028099;28;20435;-46
2023/07/20 09:35:16;;;;;;;2.57;2.23;;;29.10;34.40;;;;;;5026877;28;20455;-50
2023/07/20 09:37:52;;;;;;;3.17;1.83;;;29.20;34.50;;;;;;5031303;28;20456;-47
2023/07/20 09:40:18;;;;;;;2.20;2.00;;;29.60;34.20;;;;;;5026738;28;20452;-48
2023/07/20 09:42:44;;;;;;;3.33;2.30;;;29.70;33.00;;;;;;5030670;28;20475;-46
2023/07/20 09:45:10;;;;;;;5.27;2.20;;;29.70;33.30;;;;;;5030210;28;20436;-47
2023/07/20 09:47:40;;;;;;;4.00;2.10;;;29.70;33.90;;;;;;5030203;28;20459;-48
2023/07/20 09:50:10;;;;;;;3.90;2.50;;;29.60;33.90;;;;;;5030597;28;20244;-52
2023/07/20 09:52:39;;;;;;;2.80;2.37;;;29.50;34.30;;;;;;5029909;28;20443;-46
2023/07/20 09:55:08;;;;;;;2.17;2.07;;;29.60;34.50;;;;;;5028470;28;20451;-47
2023/07/20 09:57:35;;;;;;;2.10;1.80;;;29.60;33.90;;;;;;5027749;28;20593;-47
2023/07/20 10:00:08;;;;;;;3.67;2.20;;;29.60;34.20;;;;;;5024970;28;20994;-49
2023/07/20 10:02:40;;;;;;;3.33;2.63;;;29.60;33.30;;;;;;5026064;28;20471;-48
2023/07/20 10:05:10;;;;;;;4.70;1.90;;;29.30;32.80;;;;;;5031296;28;20446;-47
2023/07/20 10:07:40;;;;;;;2.47;2.13;;;29.40;33.00;;;;;;5032116;28;20542;-46
2023/07/20 10:10:10;;;;;;;5.20;2.23;;;29.60;33.10;;;;;;5034114;28;20440;-48
2023/07/20 10:12:37;;;;;;;2.23;2.03;;;29.90;32.80;;;;;;5020820;28;20468;-51
2023/07/20 10:15:24;;;;;;;2.23;2.00;;;30.10;33.30;;;;;;5030782;28;20483;-47
2023/07/20 10:18:02;;;;;;;2.77;1.93;;;30.00;31.30;;;;;;5017835;28;22300;-50
2023/07/20 10:20:28;;;;;;;2.40;2.20;;;29.90;31.30;;;;;;5033474;28;20443;-46
2023/07/20 10:22:55;;;;;;;2.13;1.93;;;29.90;31.80;;;;;;5031553;28;20494;-48
2023/07/20 10:25:23;;;;;;;2.37;1.70;;;30.20;31.40;;;;;;5030738;28;20240;-47
2023/07/20 10:27:49;;;;;;;2.57;2.10;;;30.50;30.30;;;;;;5032703;28;20449;-47
2023/07/20 10:30:15;;;;;;;2.87;1.70;;;30.70;30.00;;;;;;5028756;28;20443;-48
2023/07/20 10:32:42;;;;;;;1.93;1.70;;;30.70;29.80;;;;;;5029922;28;20212;-48
2023/07/20 10:35:15;;;;;;;2.83;2.10;;;30.70;29.70;;;;;;5030959;28;20201;-47
2023/07/20 10:37:50;;;;;;;2.20;2.00;;;30.80;29.60;;;;;;5031806;28;20448;-47
2023/07/20 10:40:28;;;;;;;1.67;1.57;;;30.90;29.80;;;;;;5037584;28;20885;-47
2023/07/20 10:43:04;;;;;;;2.50;1.60;;;30.80;29.50;;;;;;5033582;28;20561;-47
2023/07/20 10:45:42;;;;;;;1.67;1.57;;;31.00;29.00;;;;;;5028873;28;20452;-47
2023/07/20 10:48:34;;;;;;;2.63;2.00;;;31.10;29.40;;;;;;5032446;28;20466;-46
2023/07/20 10:51:16;;;;;;;3.40;1.77;;;31.20;28.40;;;;;;5029796;28;20883;-47
2023/07/20 10:53:42;;;;;;;1.60;1.50;;;30.80;28.60;;;;;;5034662;28;20448;-47
2023/07/20 10:56:19;;;;;;;1.70;1.60;;;30.70;28.70;;;;;;5034535;28;20494;-46
2023/07/20 10:58:44;;;;;;;1.60;1.50;;;30.70;29.00;;;;;;5033882;28;20192;-47
2023/07/20 11:01:15;;;;;;;1.93;1.40;;;30.60;28.90;;;;;;5032853;28;20867;-47
2023/07/20 11:03:41;;;;;;;2.40;1.40;;;30.70;29.00;;;;;;5032847;28;20276;-48
2023/07/20 11:06:31;;;;;;;2.07;1.90;;;30.80;28.20;;;;;;5032599;28;20412;-47
2023/07/20 11:09:10;;;;;;;2.00;1.63;;;31.00;28.40;;;;;;5026405;28;20197;-47
2023/07/20 11:11:38;;;;;;;1.77;1.60;;;30.90;28.80;;;;;;5033428;28;21015;-49
2023/07/20 11:14:19;;;;;;;2.50;1.60;;;31.00;28.70;;;;;;5033608;28;20497;-48
2023/07/20 11:16:46;;;;;;;1.60;1.50;;;31.00;28.50;;;;;;5040734;28;20857;-47
2023/07/20 11:19:17;;;;;;;3.17;1.70;;;31.20;27.60;;;;;;5032362;28;20474;-47
2023/07/20 11:21:45;;;;;;;2.50;1.70;;;31.50;27.50;;;;;;5033028;28;20602;-47
2023/07/20 11:24:11;;;;;;;1.80;1.67;;;31.70;27.60;;;;;;5033123;28;20958;-49
2023/07/20 11:26:42;;;;;;;1.63;1.50;;;31.70;27.50;;;;;;5033883;28;20459;-48
2023/07/20 11:29:07;;;;;;;1.73;1.60;;;31.70;27.00;;;;;;5033297;28;20448;-47
2023/07/20 11:31:41;;;;;;;1.67;1.50;;;31.90;26.90;;;;;;5030864;28;20444;-47
2023/07/20 11:34:11;;;;;;;2.30;1.20;;;31.90;27.00;;;;;;5032473;28;20225;-49
2023/07/20 11:36:36;;;;;;;1.53;1.43;;;32.00;27.00;;;;;;5031960;28;20852;-48
2023/07/20 11:39:04;;;;;;;2.60;1.83;;;32.00;26.70;;;;;;5031868;28;20458;-49
2023/07/20 11:41:31;;;;;;;1.90;1.80;;;32.10;26.40;;;;;;5031836;28;20660;-48
2023/07/20 11:43:57;;;;;;;1.90;1.50;;;32.40;26.90;;;;;;5033274;28;20948;-48
2023/07/20 11:46:23;;;;;;;8.70;1.80;;;32.40;26.40;;;;;;5032850;28;20500;-47
2023/07/20 11:48:48;;;;;;;4.30;1.70;;;32.20;26.20;;;;;;5033020;28;20939;-49
2023/07/20 11:51:17;;;;;;;2.13;1.90;;;32.20;27.10;;;;;;5025445;28;20208;-48
2023/07/20 11:53:46;;;;;;;2.90;1.80;;;32.30;27.00;;;;;;5027126;28;20535;-48
2023/07/20 11:56:12;;;;;;;1.60;1.50;;;32.50;27.00;;;;;;5031979;28;20527;-50
2023/07/20 11:58:44;;;;;;;1.80;1.63;;;32.80;26.70;;;;;;5032934;28;20867;-48
2023/07/20 12:01:11;;;;;;;1.60;1.50;;;33.10;26.40;;;;;;5024308;28;21012;-47
2023/07/20 12:03:36;;;;;;;1.73;1.60;;;32.90;25.50;;;;;;5034574;28;20487;-48
2023/07/20 12:06:09;;;;;;;2.10;1.77;;;33.00;25.50;;;;;;5032436;28;20818;-48
2023/07/20 12:08:34;;;;;;;3.77;1.80;;;33.10;25.40;;;;;;5032397;28;20201;-50
2023/07/20 12:11:00;;;;;;;2.80;1.50;;;33.30;25.00;;;;;;5032098;28;20500;-51
2023/07/20 12:13:57;;;;;;;1.73;1.63;;;33.00;24.80;;;;;;5032843;28;20200;-47
2023/07/20 12:16:27;;;;;;;1.60;1.37;;;33.00;25.00;;;;;;5031701;28;20261;-46
2023/07/20 12:19:03;;;;;;;1.90;1.50;;;33.20;24.90;;;;;;5032410;28;20800;-51
2023/07/20 12:21:30;;;;;;;2.40;1.53;;;33.20;25.80;;;;;;5032194;28;20501;-49
2023/07/20 12:23:58;;;;;;;1.80;1.53;;;33.40;25.00;;;;;;5030661;28;20560;-46
2023/07/20 12:26:25;;;;;;;2.67;1.60;;;33.60;24.00;;;;;;5029173;28;20810;-47
2023/07/20 12:28:50;;;;;;;3.10;1.40;;;33.60;23.60;;;;;;5031596;28;20444;-51
2023/07/20 12:31:16;;;;;;;1.90;1.70;;;33.60;24.60;;;;;;5029945;28;20451;-51
2023/07/20 12:33:42;;;;;;;2.13;1.60;;;33.60;24.20;;;;;;5033008;28;20193;-51
2023/07/20 12:36:09;;;;;;;1.83;1.70;;;33.40;24.10;;;;;;5029791;28;20338;-49
2023/07/20 12:38:35;;;;;;;3.60;1.70;;;33.40;24.20;;;;;;5032378;28;20300;-49
2023/07/20 12:41:01;;;;;;;4.03;1.53;;;33.50;24.30;;;;;;5027210;28;20543;-50
2023/07/20 12:43:27;;;;;;;1.60;1.50;;;33.60;24.90;;;;;;5031477;28;20232;-47
2023/07/20 12:45:53;;;;;;;2.23;1.53;;;33.80;24.30;;;;;;5028459;28;20448;-51
2023/07/20 12:48:19;;;;;;;2.33;1.40;;;33.70;24.20;;;;;;5030621;28;20189;-53
2023/07/20 12:50:44;;;;;;;5.27;1.80;;;33.60;24.50;;;;;;5034934;28;20276;-48
2023/07/20 12:53:10;;;;;;;2.13;1.60;;;33.60;24.10;;;;;;5026585;28;20201;-48